sensor_id;sensor_type;location;lat;lon;timestamp;temperature;humidity
72576;DHT22;60613;48.658;2.328;2022-09-12T00:00:26;24.50;49.90
72576;DHT22;60613;48.658;2.328;2022-09-12T00:02:53;24.50;49.90
72576;DHT22;60613;48.658;2.328;2022-09-12T00:05:19;24.40;49.90
72576;DHT22;60613;48.658;2.328;2022-09-12T00:07:45;24.50;49.80
72576;DHT22;60613;48.658;2.328;2022-09-12T00:10:11;24.50;49.80
72576;DHT22;60613;48.658;2.328;2022-09-12T00:12:36;24.50;51.00
72576;DHT22;60613;48.658;2.328;2022-09-12T00:15:02;24.50;49.80
72576;DHT22;60613;48.658;2.328;2022-09-12T00:17:28;24.50;49.80
72576;DHT22;60613;48.658;2.328;2022-09-12T00:19:54;24.50;49.80
72576;DHT22;60613;48.658;2.328;2022-09-12T00:22:20;24.40;49.90
72576;DHT22;60613;48.658;2.328;2022-09-12T00:24:46;24.50;49.80
72576;DHT22;60613;48.658;2.328;2022-09-12T00:27:11;24.50;49.70
72576;DHT22;60613;48.658;2.328;2022-09-12T00:29:37;24.50;49.60
72576;DHT22;60613;48.658;2.328;2022-09-12T00:32:03;24.50;49.80
72576;DHT22;60613;48.658;2.328;2022-09-12T00:34:29;24.40;49.80
72576;DHT22;60613;48.658;2.328;2022-09-12T00:36:54;24.50;49.80
72576;DHT22;60613;48.658;2.328;2022-09-12T00:39:20;24.40;50.80
72576;DHT22;60613;48.658;2.328;2022-09-12T00:41:46;24.40;49.70
72576;DHT22;60613;48.658;2.328;2022-09-12T00:46:41;24.40;49.70
72576;DHT22;60613;48.658;2.328;2022-09-12T00:51:52;24.40;49.60
72576;DHT22;60613;48.658;2.328;2022-09-12T00:54:22;24.40;49.60
72576;DHT22;60613;48.658;2.328;2022-09-12T00:56:52;24.40;49.50
72576;DHT22;60613;48.658;2.328;2022-09-12T00:59:34;24.40;50.80
72576;DHT22;60613;48.658;2.328;2022-09-12T01:02:02;24.40;49.60
72576;DHT22;60613;48.658;2.328;2022-09-12T01:04:29;24.40;49.40
72576;DHT22;60613;48.658;2.328;2022-09-12T01:06:57;24.40;49.50
72576;DHT22;60613;48.658;2.328;2022-09-12T01:09:24;24.40;49.30
72576;DHT22;60613;48.658;2.328;2022-09-12T01:11:51;24.50;49.30
72576;DHT22;60613;48.658;2.328;2022-09-12T01:14:18;24.40;49.30
72576;DHT22;60613;48.658;2.328;2022-09-12T01:16:45;24.40;49.30
72576;DHT22;60613;48.658;2.328;2022-09-12T01:24:52;24.40;49.30
72576;DHT22;60613;48.658;2.328;2022-09-12T01:27:41;24.40;49.20
72576;DHT22;60613;48.658;2.328;2022-09-12T01:41:08;24.40;49.30
72576;DHT22;60613;48.658;2.328;2022-09-12T01:43:50;24.30;49.40
72576;DHT22;60613;48.658;2.328;2022-09-12T01:46:53;24.40;50.40
72576;DHT22;60613;48.658;2.328;2022-09-12T01:49:30;24.30;49.20
72576;DHT22;60613;48.658;2.328;2022-09-12T01:51:59;24.30;49.20
72576;DHT22;60613;48.658;2.328;2022-09-12T01:54:34;24.30;49.40
72576;DHT22;60613;48.658;2.328;2022-09-12T01:57:09;24.30;49.30
72576;DHT22;60613;48.658;2.328;2022-09-12T01:59:39;24.30;49.20
72576;DHT22;60613;48.658;2.328;2022-09-12T02:02:10;24.30;49.40
72576;DHT22;60613;48.658;2.328;2022-09-12T02:04:43;24.30;49.40
72576;DHT22;60613;48.658;2.328;2022-09-12T02:07:19;24.30;49.40
72576;DHT22;60613;48.658;2.328;2022-09-12T02:09:56;24.20;49.40
72576;DHT22;60613;48.658;2.328;2022-09-12T02:12:27;24.20;49.50
72576;DHT22;60613;48.658;2.328;2022-09-12T02:15:01;24.20;49.40
72576;DHT22;60613;48.658;2.328;2022-09-12T02:17:28;24.20;49.40
72576;DHT22;60613;48.658;2.328;2022-09-12T02:19:58;24.20;49.30
72576;DHT22;60613;48.658;2.328;2022-09-12T02:22:29;24.20;49.40
72576;DHT22;60613;48.658;2.328;2022-09-12T02:24:59;24.20;49.40
72576;DHT22;60613;48.658;2.328;2022-09-12T02:27:50;24.20;49.40
72576;DHT22;60613;48.658;2.328;2022-09-12T02:30:17;24.20;49.40
72576;DHT22;60613;48.658;2.328;2022-09-12T02:36:14;24.20;49.40
72576;DHT22;60613;48.658;2.328;2022-09-12T02:38:47;24.20;49.30
72576;DHT22;60613;48.658;2.328;2022-09-12T02:41:16;24.20;49.30
72576;DHT22;60613;48.658;2.328;2022-09-12T02:43:42;24.10;49.30
72576;DHT22;60613;48.658;2.328;2022-09-12T02:46:12;24.20;49.30
72576;DHT22;60613;48.658;2.328;2022-09-12T02:48:41;24.10;49.30
72576;DHT22;60613;48.658;2.328;2022-09-12T02:51:09;24.10;49.40
72576;DHT22;60613;48.658;2.328;2022-09-12T02:53:36;24.10;49.40
72576;DHT22;60613;48.658;2.328;2022-09-12T02:56:04;24.10;49.40
72576;DHT22;60613;48.658;2.328;2022-09-12T02:58:32;24.10;49.40
72576;DHT22;60613;48.658;2.328;2022-09-12T03:01:41;24.10;49.30
72576;DHT22;60613;48.658;2.328;2022-09-12T03:12:25;24.00;49.30
72576;DHT22;60613;48.658;2.328;2022-09-12T03:15:20;24.00;49.20
72576;DHT22;60613;48.658;2.328;2022-09-12T03:18:00;24.00;49.30
72576;DHT22;60613;48.658;2.328;2022-09-12T03:20:49;24.00;49.20
72576;DHT22;60613;48.658;2.328;2022-09-12T03:23:40;24.00;49.20
72576;DHT22;60613;48.658;2.328;2022-09-12T03:26:53;24.00;49.20
72576;DHT22;60613;48.658;2.328;2022-09-12T03:29:20;24.00;49.20
72576;DHT22;60613;48.658;2.328;2022-09-12T03:31:50;24.00;49.20
72576;DHT22;60613;48.658;2.328;2022-09-12T03:34:17;24.00;49.20
72576;DHT22;60613;48.658;2.328;2022-09-12T03:36:43;24.00;49.20
72576;DHT22;60613;48.658;2.328;2022-09-12T03:39:08;24.00;49.10
72576;DHT22;60613;48.658;2.328;2022-09-12T03:41:34;24.00;49.10
72576;DHT22;60613;48.658;2.328;2022-09-12T03:44:00;24.00;48.90
72576;DHT22;60613;48.658;2.328;2022-09-12T03:46:25;24.00;49.20
72576;DHT22;60613;48.658;2.328;2022-09-12T03:48:51;24.00;49.10
72576;DHT22;60613;48.658;2.328;2022-09-12T03:51:16;24.00;49.10
72576;DHT22;60613;48.658;2.328;2022-09-12T03:53:42;23.90;49.10
72576;DHT22;60613;48.658;2.328;2022-09-12T03:56:09;23.90;49.10
72576;DHT22;60613;48.658;2.328;2022-09-12T03:58:36;23.90;49.30
72576;DHT22;60613;48.658;2.328;2022-09-12T04:01:08;23.90;49.10
72576;DHT22;60613;48.658;2.328;2022-09-12T04:03:41;23.90;49.20
72576;DHT22;60613;48.658;2.328;2022-09-12T04:06:08;24.00;49.20
72576;DHT22;60613;48.658;2.328;2022-09-12T04:08:35;24.00;49.00
72576;DHT22;60613;48.658;2.328;2022-09-12T04:11:03;23.90;49.00
72576;DHT22;60613;48.658;2.328;2022-09-12T04:13:29;23.90;49.10
72576;DHT22;60613;48.658;2.328;2022-09-12T04:15:58;23.90;49.10
72576;DHT22;60613;48.658;2.328;2022-09-12T04:18:24;23.90;49.10
72576;DHT22;60613;48.658;2.328;2022-09-12T04:20:49;23.90;49.10
72576;DHT22;60613;48.658;2.328;2022-09-12T04:23:15;24.00;49.00
72576;DHT22;60613;48.658;2.328;2022-09-12T04:25:40;23.90;48.90
72576;DHT22;60613;48.658;2.328;2022-09-12T04:28:06;23.90;48.90
72576;DHT22;60613;48.658;2.328;2022-09-12T04:30:33;23.90;48.90
72576;DHT22;60613;48.658;2.328;2022-09-12T04:32:59;23.90;49.10
72576;DHT22;60613;48.658;2.328;2022-09-12T04:35:24;23.90;49.00
72576;DHT22;60613;48.658;2.328;2022-09-12T04:37:50;23.90;49.20
72576;DHT22;60613;48.658;2.328;2022-09-12T04:40:15;23.80;48.90
72576;DHT22;60613;48.658;2.328;2022-09-12T04:42:41;23.80;48.90
72576;DHT22;60613;48.658;2.328;2022-09-12T04:45:07;23.90;49.00
72576;DHT22;60613;48.658;2.328;2022-09-12T04:47:33;23.80;49.00
72576;DHT22;60613;48.658;2.328;2022-09-12T04:49:58;23.80;49.00
72576;DHT22;60613;48.658;2.328;2022-09-12T04:52:24;23.80;48.90
72576;DHT22;60613;48.658;2.328;2022-09-12T04:54:49;23.80;48.90
72576;DHT22;60613;48.658;2.328;2022-09-12T04:57:15;23.80;48.90
72576;DHT22;60613;48.658;2.328;2022-09-12T04:59:41;23.80;49.00
72576;DHT22;60613;48.658;2.328;2022-09-12T05:02:07;23.80;50.10
72576;DHT22;60613;48.658;2.328;2022-09-12T05:04:32;23.80;49.10
72576;DHT22;60613;48.658;2.328;2022-09-12T05:06:58;23.80;48.80
72576;DHT22;60613;48.658;2.328;2022-09-12T05:09:24;23.80;48.80
72576;DHT22;60613;48.658;2.328;2022-09-12T05:11:50;23.70;48.70
72576;DHT22;60613;48.658;2.328;2022-09-12T05:14:15;23.70;48.80
72576;DHT22;60613;48.658;2.328;2022-09-12T05:16:41;23.70;48.80
72576;DHT22;60613;48.658;2.328;2022-09-12T05:19:10;23.70;48.80
72576;DHT22;60613;48.658;2.328;2022-09-12T05:21:35;23.70;48.80
72576;DHT22;60613;48.658;2.328;2022-09-12T05:24:01;23.70;48.80
72576;DHT22;60613;48.658;2.328;2022-09-12T05:26:27;23.70;48.80
72576;DHT22;60613;48.658;2.328;2022-09-12T05:28:53;23.70;48.80
72576;DHT22;60613;48.658;2.328;2022-09-12T05:31:26;23.70;48.90
72576;DHT22;60613;48.658;2.328;2022-09-12T05:33:53;23.70;48.80
72576;DHT22;60613;48.658;2.328;2022-09-12T05:36:25;23.70;48.80
72576;DHT22;60613;48.658;2.328;2022-09-12T05:38:51;23.70;48.80
72576;DHT22;60613;48.658;2.328;2022-09-12T05:41:19;23.70;48.80
72576;DHT22;60613;48.658;2.328;2022-09-12T05:43:45;23.70;48.70
72576;DHT22;60613;48.658;2.328;2022-09-12T05:46:16;23.70;48.80
72576;DHT22;60613;48.658;2.328;2022-09-12T05:48:44;23.70;48.80
72576;DHT22;60613;48.658;2.328;2022-09-12T05:51:11;23.60;48.80
72576;DHT22;60613;48.658;2.328;2022-09-12T05:53:39;23.60;48.80
72576;DHT22;60613;48.658;2.328;2022-09-12T05:56:07;23.60;48.70
72576;DHT22;60613;48.658;2.328;2022-09-12T05:58:35;23.60;48.70
72576;DHT22;60613;48.658;2.328;2022-09-12T06:01:05;23.60;48.70
72576;DHT22;60613;48.658;2.328;2022-09-12T06:03:38;23.60;48.70
72576;DHT22;60613;48.658;2.328;2022-09-12T06:06:05;23.60;48.70
72576;DHT22;60613;48.658;2.328;2022-09-12T06:08:34;23.60;48.70
72576;DHT22;60613;48.658;2.328;2022-09-12T06:11:02;23.60;48.70
72576;DHT22;60613;48.658;2.328;2022-09-12T06:13:31;23.60;48.70
72576;DHT22;60613;48.658;2.328;2022-09-12T06:16:08;23.60;48.60
72576;DHT22;60613;48.658;2.328;2022-09-12T06:18:35;23.60;48.60
72576;DHT22;60613;48.658;2.328;2022-09-12T06:21:10;23.60;48.50
72576;DHT22;60613;48.658;2.328;2022-09-12T06:23:37;23.60;48.40
72576;DHT22;60613;48.658;2.328;2022-09-12T06:26:04;23.60;48.70
72576;DHT22;60613;48.658;2.328;2022-09-12T06:28:31;23.70;48.80
72576;DHT22;60613;48.658;2.328;2022-09-12T06:31:02;23.80;48.60
72576;DHT22;60613;48.658;2.328;2022-09-12T06:33:30;23.80;48.40
72576;DHT22;60613;48.658;2.328;2022-09-12T06:36:02;23.80;48.30
72576;DHT22;60613;48.658;2.328;2022-09-12T06:38:29;23.80;48.60
72576;DHT22;60613;48.658;2.328;2022-09-12T06:40:54;23.80;48.40
72576;DHT22;60613;48.658;2.328;2022-09-12T06:43:20;23.80;48.50
72576;DHT22;60613;48.658;2.328;2022-09-12T06:45:49;23.80;48.70
72576;DHT22;60613;48.658;2.328;2022-09-12T06:48:15;23.90;48.90
72576;DHT22;60613;48.658;2.328;2022-09-12T06:50:42;23.70;48.80
72576;DHT22;60613;48.658;2.328;2022-09-12T06:53:08;23.60;49.50
72576;DHT22;60613;48.658;2.328;2022-09-12T06:55:34;23.70;49.70
72576;DHT22;60613;48.658;2.328;2022-09-12T06:57:59;23.60;49.80
72576;DHT22;60613;48.658;2.328;2022-09-12T07:00:25;23.50;50.00
72576;DHT22;60613;48.658;2.328;2022-09-12T07:02:54;23.30;50.40
72576;DHT22;60613;48.658;2.328;2022-09-12T07:05:23;23.20;50.90
72576;DHT22;60613;48.658;2.328;2022-09-12T07:07:48;23.30;50.80
72576;DHT22;60613;48.658;2.328;2022-09-12T07:10:14;23.10;51.20
72576;DHT22;60613;48.658;2.328;2022-09-12T07:12:40;23.00;51.40
72576;DHT22;60613;48.658;2.328;2022-09-12T07:15:05;22.80;51.90
72576;DHT22;60613;48.658;2.328;2022-09-12T07:17:31;22.90;51.70
72576;DHT22;60613;48.658;2.328;2022-09-12T07:19:57;22.90;51.80
72576;DHT22;60613;48.658;2.328;2022-09-12T07:22:22;22.90;52.00
72576;DHT22;60613;48.658;2.328;2022-09-12T07:24:48;23.00;51.80
72576;DHT22;60613;48.658;2.328;2022-09-12T07:27:14;23.30;51.00
72576;DHT22;60613;48.658;2.328;2022-09-12T07:29:40;23.30;50.80
72576;DHT22;60613;48.658;2.328;2022-09-12T07:32:06;23.40;50.80
72576;DHT22;60613;48.658;2.328;2022-09-12T07:34:32;23.50;50.40
72576;DHT22;60613;48.658;2.328;2022-09-12T07:36:58;23.60;50.40
72576;DHT22;60613;48.658;2.328;2022-09-12T07:39:24;23.60;50.00
72576;DHT22;60613;48.658;2.328;2022-09-12T07:41:49;23.60;50.40
72576;DHT22;60613;48.658;2.328;2022-09-12T07:44:15;23.60;50.50
72576;DHT22;60613;48.658;2.328;2022-09-12T07:46:41;23.70;50.50
72576;DHT22;60613;48.658;2.328;2022-09-12T07:49:06;23.60;50.60
72576;DHT22;60613;48.658;2.328;2022-09-12T07:51:32;23.60;50.60
72576;DHT22;60613;48.658;2.328;2022-09-12T07:53:58;23.80;50.70
72576;DHT22;60613;48.658;2.328;2022-09-12T07:56:25;23.80;50.90
72576;DHT22;60613;48.658;2.328;2022-09-12T07:58:51;23.70;51.80
72576;DHT22;60613;48.658;2.328;2022-09-12T08:01:19;23.70;52.00
72576;DHT22;60613;48.658;2.328;2022-09-12T08:03:51;23.70;52.10
72576;DHT22;60613;48.658;2.328;2022-09-12T08:06:19;23.70;51.90
72576;DHT22;60613;48.658;2.328;2022-09-12T08:08:46;23.80;51.60
72576;DHT22;60613;48.658;2.328;2022-09-12T08:11:15;23.90;50.80
72576;DHT22;60613;48.658;2.328;2022-09-12T08:13:42;24.00;50.60
72576;DHT22;60613;48.658;2.328;2022-09-12T08:16:11;24.00;50.60
72576;DHT22;60613;48.658;2.328;2022-09-12T08:18:37;24.00;50.50
72576;DHT22;60613;48.658;2.328;2022-09-12T08:21:23;24.20;49.50
72576;DHT22;60613;48.658;2.328;2022-09-12T08:23:54;24.30;49.00
72576;DHT22;60613;48.658;2.328;2022-09-12T08:26:21;24.40;48.40
72576;DHT22;60613;48.658;2.328;2022-09-12T08:28:49;24.50;48.60
72576;DHT22;60613;48.658;2.328;2022-09-12T08:31:16;24.50;48.30
72576;DHT22;60613;48.658;2.328;2022-09-12T08:33:42;24.60;48.20
72576;DHT22;60613;48.658;2.328;2022-09-12T08:36:17;24.60;48.40
72576;DHT22;60613;48.658;2.328;2022-09-12T08:38:45;24.50;48.50
72576;DHT22;60613;48.658;2.328;2022-09-12T08:41:13;24.40;48.70
72576;DHT22;60613;48.658;2.328;2022-09-12T08:49:28;24.60;48.90
72576;DHT22;60613;48.658;2.328;2022-09-12T08:51:56;24.70;48.70
72576;DHT22;60613;48.658;2.328;2022-09-12T08:54:27;24.80;48.50
72576;DHT22;60613;48.658;2.328;2022-09-12T08:56:58;24.80;48.30
72576;DHT22;60613;48.658;2.328;2022-09-12T08:59:26;24.90;48.40
72576;DHT22;60613;48.658;2.328;2022-09-12T09:01:55;24.90;48.40
72576;DHT22;60613;48.658;2.328;2022-09-12T09:04:36;24.90;48.30
72576;DHT22;60613;48.658;2.328;2022-09-12T09:10:15;25.00;47.70
72576;DHT22;60613;48.658;2.328;2022-09-12T09:18:02;24.90;47.40
72576;DHT22;60613;48.658;2.328;2022-09-12T09:26:00;25.00;47.30
72576;DHT22;60613;48.658;2.328;2022-09-12T09:31:17;25.10;47.40
72576;DHT22;60613;48.658;2.328;2022-09-12T09:33:43;25.10;47.40
72576;DHT22;60613;48.658;2.328;2022-09-12T09:44:31;25.20;47.20
72576;DHT22;60613;48.658;2.328;2022-09-12T09:46:58;25.20;47.20
72576;DHT22;60613;48.658;2.328;2022-09-12T09:49:27;25.20;47.40
72576;DHT22;60613;48.658;2.328;2022-09-12T09:51:54;25.20;47.30
72576;DHT22;60613;48.658;2.328;2022-09-12T10:05:45;25.20;47.70
72576;DHT22;60613;48.658;2.328;2022-09-12T10:08:23;25.20;48.10
72576;DHT22;60613;48.658;2.328;2022-09-12T10:17:19;25.20;48.20
72576;DHT22;60613;48.658;2.328;2022-09-12T10:19:02;25.20;48.50
72576;DHT22;60613;48.658;2.328;2022-09-12T10:21:38;25.10;48.30
72576;DHT22;60613;48.658;2.328;2022-09-12T10:24:24;25.10;48.10
72576;DHT22;60613;48.658;2.328;2022-09-12T10:26:54;25.20;48.10
72576;DHT22;60613;48.658;2.328;2022-09-12T10:29:29;25.20;48.30
72576;DHT22;60613;48.658;2.328;2022-09-12T10:31:58;25.10;49.00
72576;DHT22;60613;48.658;2.328;2022-09-12T10:37:06;25.10;50.10
72576;DHT22;60613;48.658;2.328;2022-09-12T10:39:33;25.10;50.90
72576;DHT22;60613;48.658;2.328;2022-09-12T10:42:01;25.00;50.00
72576;DHT22;60613;48.658;2.328;2022-09-12T10:44:29;25.10;50.30
72576;DHT22;60613;48.658;2.328;2022-09-12T10:46:56;25.00;49.80
72576;DHT22;60613;48.658;2.328;2022-09-12T10:49:30;25.10;49.60
72576;DHT22;60613;48.658;2.328;2022-09-12T10:52:34;25.00;48.90
72576;DHT22;60613;48.658;2.328;2022-09-12T10:55:00;25.10;48.10
72576;DHT22;60613;48.658;2.328;2022-09-12T11:00:14;25.20;47.30
72576;DHT22;60613;48.658;2.328;2022-09-12T11:05:51;25.20;46.70
72576;DHT22;60613;48.658;2.328;2022-09-12T11:08:48;25.30;46.50
72576;DHT22;60613;48.658;2.328;2022-09-12T11:11:49;25.40;45.50
72576;DHT22;60613;48.658;2.328;2022-09-12T11:14:31;25.40;46.00
72576;DHT22;60613;48.658;2.328;2022-09-12T11:19:52;25.50;45.50
72576;DHT22;60613;48.658;2.328;2022-09-12T11:25:26;25.50;45.50
72576;DHT22;60613;48.658;2.328;2022-09-12T11:33:43;25.60;45.30
72576;DHT22;60613;48.658;2.328;2022-09-12T11:39:22;25.60;45.40
72576;DHT22;60613;48.658;2.328;2022-09-12T11:41:57;25.70;45.20
72576;DHT22;60613;48.658;2.328;2022-09-12T11:44:36;25.60;45.00
72576;DHT22;60613;48.658;2.328;2022-09-12T11:47:07;25.60;45.20
72576;DHT22;60613;48.658;2.328;2022-09-12T11:49:38;25.80;45.00
72576;DHT22;60613;48.658;2.328;2022-09-12T11:52:16;25.70;45.10
72576;DHT22;60613;48.658;2.328;2022-09-12T11:54:46;25.70;45.30
72576;DHT22;60613;48.658;2.328;2022-09-12T12:06:03;25.60;46.00
72576;DHT22;60613;48.658;2.328;2022-09-12T12:08:09;25.50;46.90
72576;DHT22;60613;48.658;2.328;2022-09-12T12:15:57;25.40;46.70
72576;DHT22;60613;48.658;2.328;2022-09-12T12:18:26;25.20;47.00
72576;DHT22;60613;48.658;2.328;2022-09-12T12:20:53;25.20;47.30
72576;DHT22;60613;48.658;2.328;2022-09-12T12:23:31;25.20;47.40
72576;DHT22;60613;48.658;2.328;2022-09-12T12:26:00;25.10;47.50
72576;DHT22;60613;48.658;2.328;2022-09-12T12:28:56;25.10;47.70
72576;DHT22;60613;48.658;2.328;2022-09-12T12:31:22;25.10;47.90
72576;DHT22;60613;48.658;2.328;2022-09-12T12:36:35;25.10;47.90
72576;DHT22;60613;48.658;2.328;2022-09-12T12:41:56;25.10;48.10
72576;DHT22;60613;48.658;2.328;2022-09-12T12:47:17;25.10;48.10
72576;DHT22;60613;48.658;2.328;2022-09-12T12:50:00;25.10;48.10
72576;DHT22;60613;48.658;2.328;2022-09-12T12:55:15;25.10;48.00
72576;DHT22;60613;48.658;2.328;2022-09-12T12:57:49;25.20;48.20
72576;DHT22;60613;48.658;2.328;2022-09-12T13:05:43;25.10;48.20
72576;DHT22;60613;48.658;2.328;2022-09-12T13:10:56;25.10;48.20
72576;DHT22;60613;48.658;2.328;2022-09-12T13:13:50;25.10;48.40
72576;DHT22;60613;48.658;2.328;2022-09-12T13:16:38;25.20;48.30
72576;DHT22;60613;48.658;2.328;2022-09-12T13:19:12;25.20;48.40
72576;DHT22;60613;48.658;2.328;2022-09-12T13:22:00;25.20;48.30
72576;DHT22;60613;48.658;2.328;2022-09-12T13:24:26;25.20;48.40
72576;DHT22;60613;48.658;2.328;2022-09-12T13:26:52;25.20;48.40
72576;DHT22;60613;48.658;2.328;2022-09-12T13:29:23;25.20;48.10
72576;DHT22;60613;48.658;2.328;2022-09-12T13:31:58;25.20;48.30
72576;DHT22;60613;48.658;2.328;2022-09-12T13:34:34;25.20;48.40
72576;DHT22;60613;48.658;2.328;2022-09-12T13:39:47;25.20;48.30
72576;DHT22;60613;48.658;2.328;2022-09-12T13:45:23;25.30;48.30
72576;DHT22;60613;48.658;2.328;2022-09-12T13:47:55;25.30;48.30
72576;DHT22;60613;48.658;2.328;2022-09-12T13:50:25;25.30;48.20
72576;DHT22;60613;48.658;2.328;2022-09-12T13:52:57;25.30;48.20
72576;DHT22;60613;48.658;2.328;2022-09-12T13:58:01;25.30;47.40
72576;DHT22;60613;48.658;2.328;2022-09-12T14:00:28;25.40;47.40
72576;DHT22;60613;48.658;2.328;2022-09-12T14:02:57;25.40;47.30
72576;DHT22;60613;48.658;2.328;2022-09-12T14:05:44;25.30;47.90
72576;DHT22;60613;48.658;2.328;2022-09-12T14:08:11;25.30;48.30
72576;DHT22;60613;48.658;2.328;2022-09-12T14:10:43;25.30;49.40
72576;DHT22;60613;48.658;2.328;2022-09-12T14:13:19;25.30;48.30
72576;DHT22;60613;48.658;2.328;2022-09-12T14:15:47;25.30;48.30
72576;DHT22;60613;48.658;2.328;2022-09-12T14:18:28;25.30;48.30
72576;DHT22;60613;48.658;2.328;2022-09-12T14:21:09;25.30;48.20
72576;DHT22;60613;48.658;2.328;2022-09-12T14:23:38;25.20;48.30
72576;DHT22;60613;48.658;2.328;2022-09-12T14:26:09;25.30;48.40
72576;DHT22;60613;48.658;2.328;2022-09-12T14:28:41;25.30;48.30
72576;DHT22;60613;48.658;2.328;2022-09-12T14:31:39;25.30;48.40
72576;DHT22;60613;48.658;2.328;2022-09-12T14:36:47;25.40;48.40
72576;DHT22;60613;48.658;2.328;2022-09-12T14:41:46;25.30;48.10
72576;DHT22;60613;48.658;2.328;2022-09-12T14:44:23;25.40;48.40
72576;DHT22;60613;48.658;2.328;2022-09-12T14:46:50;25.40;48.30
72576;DHT22;60613;48.658;2.328;2022-09-12T14:56:56;25.40;48.20
72576;DHT22;60613;48.658;2.328;2022-09-12T14:59:29;25.40;48.20
72576;DHT22;60613;48.658;2.328;2022-09-12T15:02:30;25.40;48.20
72576;DHT22;60613;48.658;2.328;2022-09-12T15:10:19;25.40;48.20
72576;DHT22;60613;48.658;2.328;2022-09-12T15:12:47;25.40;48.00
72576;DHT22;60613;48.658;2.328;2022-09-12T15:15:17;25.40;48.10
72576;DHT22;60613;48.658;2.328;2022-09-12T15:17:43;25.40;48.10
72576;DHT22;60613;48.658;2.328;2022-09-12T15:20:09;25.50;48.10
72576;DHT22;60613;48.658;2.328;2022-09-12T15:22:36;25.50;47.70
72576;DHT22;60613;48.658;2.328;2022-09-12T15:25:03;25.70;47.00
72576;DHT22;60613;48.658;2.328;2022-09-12T15:27:29;25.80;46.60
72576;DHT22;60613;48.658;2.328;2022-09-12T15:29:55;25.80;46.90
72576;DHT22;60613;48.658;2.328;2022-09-12T15:32:28;25.90;46.20
72576;DHT22;60613;48.658;2.328;2022-09-12T15:34:54;26.00;46.10
72576;DHT22;60613;48.658;2.328;2022-09-12T15:37:22;26.10;45.80
72576;DHT22;60613;48.658;2.328;2022-09-12T15:39:48;26.10;45.20
72576;DHT22;60613;48.658;2.328;2022-09-12T15:42:15;26.10;44.70
72576;DHT22;60613;48.658;2.328;2022-09-12T15:44:41;26.10;44.60
72576;DHT22;60613;48.658;2.328;2022-09-12T15:47:11;26.20;44.70
72576;DHT22;60613;48.658;2.328;2022-09-12T15:49:38;26.20;44.80
72576;DHT22;60613;48.658;2.328;2022-09-12T15:52:06;26.20;44.30
72576;DHT22;60613;48.658;2.328;2022-09-12T15:54:32;26.20;44.20
72576;DHT22;60613;48.658;2.328;2022-09-12T15:56:58;26.20;44.10
72576;DHT22;60613;48.658;2.328;2022-09-12T15:59:23;26.30;44.10
72576;DHT22;60613;48.658;2.328;2022-09-12T16:01:49;26.30;44.20
72576;DHT22;60613;48.658;2.328;2022-09-12T16:04:23;26.30;44.10
72576;DHT22;60613;48.658;2.328;2022-09-12T16:06:50;26.40;44.10
72576;DHT22;60613;48.658;2.328;2022-09-12T16:09:18;26.40;44.20
72576;DHT22;60613;48.658;2.328;2022-09-12T16:11:44;26.40;44.10
72576;DHT22;60613;48.658;2.328;2022-09-12T16:14:14;26.40;44.10
72576;DHT22;60613;48.658;2.328;2022-09-12T16:16:42;26.40;44.20
72576;DHT22;60613;48.658;2.328;2022-09-12T16:19:08;26.40;44.10
72576;DHT22;60613;48.658;2.328;2022-09-12T16:21:37;26.50;44.20
72576;DHT22;60613;48.658;2.328;2022-09-12T16:24:03;26.50;44.40
72576;DHT22;60613;48.658;2.328;2022-09-12T16:26:29;26.50;44.10
72576;DHT22;60613;48.658;2.328;2022-09-12T16:28:56;26.50;44.00
72576;DHT22;60613;48.658;2.328;2022-09-12T16:31:23;26.60;44.10
72576;DHT22;60613;48.658;2.328;2022-09-12T16:33:49;26.60;43.90
72576;DHT22;60613;48.658;2.328;2022-09-12T16:36:17;26.60;43.90
72576;DHT22;60613;48.658;2.328;2022-09-12T16:38:48;26.60;44.10
72576;DHT22;60613;48.658;2.328;2022-09-12T16:41:15;26.70;44.00
72576;DHT22;60613;48.658;2.328;2022-09-12T16:43:41;26.70;43.90
72576;DHT22;60613;48.658;2.328;2022-09-12T16:46:10;26.70;43.90
72576;DHT22;60613;48.658;2.328;2022-09-12T16:48:36;26.70;43.90
72576;DHT22;60613;48.658;2.328;2022-09-12T16:51:05;26.70;43.90
72576;DHT22;60613;48.658;2.328;2022-09-12T16:53:32;26.70;43.90
72576;DHT22;60613;48.658;2.328;2022-09-12T16:55:59;26.60;43.90
72576;DHT22;60613;48.658;2.328;2022-09-12T16:58:24;26.70;44.10
72576;DHT22;60613;48.658;2.328;2022-09-12T17:01:05;26.60;44.00
72576;DHT22;60613;48.658;2.328;2022-09-12T17:03:32;26.70;44.10
72576;DHT22;60613;48.658;2.328;2022-09-12T17:06:06;26.60;44.10
72576;DHT22;60613;48.658;2.328;2022-09-12T17:08:37;26.70;44.40
72576;DHT22;60613;48.658;2.328;2022-09-12T17:11:08;26.60;44.30
72576;DHT22;60613;48.658;2.328;2022-09-12T17:13:34;26.70;45.00
72576;DHT22;60613;48.658;2.328;2022-09-12T17:16:03;26.60;44.60
72576;DHT22;60613;48.658;2.328;2022-09-12T17:18:29;26.60;45.10
72576;DHT22;60613;48.658;2.328;2022-09-12T17:20:54;26.60;45.10
72576;DHT22;60613;48.658;2.328;2022-09-12T17:23:20;26.60;45.60
72576;DHT22;60613;48.658;2.328;2022-09-12T17:25:49;26.60;44.90
72576;DHT22;60613;48.658;2.328;2022-09-12T17:28:18;26.60;45.00
72576;DHT22;60613;48.658;2.328;2022-09-12T17:30:45;26.60;44.90
72576;DHT22;60613;48.658;2.328;2022-09-12T17:33:11;26.60;45.00
72576;DHT22;60613;48.658;2.328;2022-09-12T17:35:37;26.60;45.00
72576;DHT22;60613;48.658;2.328;2022-09-12T17:38:04;26.60;45.10
72576;DHT22;60613;48.658;2.328;2022-09-12T17:40:30;26.60;45.10
72576;DHT22;60613;48.658;2.328;2022-09-12T17:42:56;26.60;45.20
72576;DHT22;60613;48.658;2.328;2022-09-12T17:45:22;26.60;45.20
72576;DHT22;60613;48.658;2.328;2022-09-12T17:47:48;26.60;45.30
72576;DHT22;60613;48.658;2.328;2022-09-12T17:50:14;26.50;45.30
72576;DHT22;60613;48.658;2.328;2022-09-12T17:52:42;26.60;45.40
72576;DHT22;60613;48.658;2.328;2022-09-12T17:55:08;26.60;45.60
72576;DHT22;60613;48.658;2.328;2022-09-12T17:57:34;26.50;45.60
72576;DHT22;60613;48.658;2.328;2022-09-12T17:59:59;26.60;45.60
72576;DHT22;60613;48.658;2.328;2022-09-12T18:02:25;26.60;45.80
72576;DHT22;60613;48.658;2.328;2022-09-12T18:04:50;26.50;45.70
72576;DHT22;60613;48.658;2.328;2022-09-12T18:07:17;26.50;45.90
72576;DHT22;60613;48.658;2.328;2022-09-12T18:09:44;26.50;47.40
72576;DHT22;60613;48.658;2.328;2022-09-12T18:12:12;26.50;46.40
72576;DHT22;60613;48.658;2.328;2022-09-12T18:14:39;26.50;46.60
72576;DHT22;60613;48.658;2.328;2022-09-12T18:17:04;26.50;46.60
72576;DHT22;60613;48.658;2.328;2022-09-12T18:19:33;26.50;46.60
72576;DHT22;60613;48.658;2.328;2022-09-12T18:22:00;26.50;46.60
72576;DHT22;60613;48.658;2.328;2022-09-12T18:24:26;26.60;46.60
72576;DHT22;60613;48.658;2.328;2022-09-12T18:26:52;26.50;46.40
72576;DHT22;60613;48.658;2.328;2022-09-12T18:29:21;26.50;46.40